Time;durP1;ratioP1;P1;durP2;ratioP2;P2;SDS_P1;SDS_P2;PMS_P1;PMS_P2;Temp;Humidity;BMP_temperature;BMP_pressure;BME280_temperature;BME280_humidity;BME280_pressure;Samples;Min_cycle;Max_cycle;Signal;HPM_P1;HPM_P2
2021/03/28 00:00:19;;;;;;;10.20;5.03;;;;;;;4.32;64.98;101375.09;2176783;80;27701;-65
2021/03/28 00:03:43;;;;;;;8.45;4.37;;;;;;;4.35;65.11;101375.09;2208479;80;28132;-67
2021/03/28 00:06:51;;;;;;;9.95;4.30;;;;;;;4.34;64.93;101379.95;2208462;80;31133;-65
2021/03/28 00:09:56;;;;;;;8.23;4.17;;;;;;;4.32;64.98;101385.70;2208504;80;33138;-67
2021/03/28 00:13:12;;;;;;;8.20;4.22;;;;;;;4.31;65.08;101389.71;2218162;80;28792;-66
2021/03/28 00:16:15;;;;;;;8.83;4.20;;;;;;;4.31;65.02;101385.27;2216529;80;27636;-65
2021/03/28 00:19:28;;;;;;;7.22;4.15;;;;;;;4.26;64.98;101378.67;2219663;80;28818;-67
2021/03/28 00:23:06;;;;;;;8.25;4.80;;;;;;;4.23;65.01;101382.66;2224792;80;31197;-67
2021/03/28 00:26:34;;;;;;;8.25;4.15;;;;;;;4.18;64.92;101388.89;2208675;80;33547;-66
2021/03/28 00:29:54;;;;;;;9.18;4.65;;;;;;;4.09;64.97;101390.72;2168818;81;28865;-67
2021/03/28 00:33:14;;;;;;;11.08;4.20;;;;;;;3.98;65.07;101391.66;2208912;80;27638;-66
2021/03/28 00:36:17;;;;;;;6.90;4.60;;;;;;;3.88;65.21;101393.46;2194064;80;28888;-67
2021/03/28 00:39:52;;;;;;;9.58;5.00;;;;;;;3.77;65.20;101397.05;2148764;77;31132;-69
2021/03/28 00:43:18;;;;;;;8.00;4.97;;;;;;;3.71;65.34;101401.03;2148412;82;33103;-68
2021/03/28 00:46:46;;;;;;;9.68;4.72;;;;;;;3.61;65.38;101400.18;2150027;82;29734;-70
2021/03/28 00:50:03;;;;;;;8.50;4.53;;;;;;;3.55;65.57;101412.14;2150018;82;27781;-69
2021/03/28 00:53:09;;;;;;;7.83;4.03;;;;;;;3.45;65.61;101403.33;2160333;81;28845;-69
2021/03/28 00:56:17;;;;;;;10.18;5.05;;;;;;;3.39;65.82;101413.92;2160879;81;32068;-69
2021/03/28 00:59:30;;;;;;;6.33;4.30;;;;;;;3.35;65.81;101410.83;2160336;82;33227;-67
2021/03/28 01:02:36;;;;;;;8.35;4.55;;;;;;;3.35;66.05;101418.78;2160861;82;28280;-69
2021/03/28 01:05:46;;;;;;;7.65;4.80;;;;;;;3.36;66.00;101423.65;2156772;81;27593;-68
2021/03/28 01:09:27;;;;;;;7.80;4.60;;;;;;;3.38;66.23;101418.78;2172645;81;28832;-68
2021/03/28 01:13:25;;;;;;;13.48;5.05;;;;;;;3.42;66.29;101419.22;2172920;81;31091;-67
2021/03/28 01:17:06;;;;;;;10.98;5.67;;;;;;;3.50;66.47;101417.42;2158209;81;33118;-70
2021/03/28 01:20:33;;;;;;;11.27;6.17;;;;;;;3.65;66.58;101419.59;2248709;78;27624;-69
2021/03/28 01:23:51;;;;;;;12.28;6.35;;;;;;;3.64;66.54;101424.02;2098870;81;27668;-70
2021/03/28 01:27:29;;;;;;;11.25;6.90;;;;;;;3.68;66.57;101422.70;2025378;86;28026;-74
2021/03/28 01:30:49;;;;;;;11.00;6.33;;;;;;;3.71;66.47;101420.05;2021135;86;31233;-70
2021/03/28 01:34:11;;;;;;;10.05;5.87;;;;;;;3.69;66.29;101424.00;2032273;86;33598;-70
2021/03/28 01:37:18;;;;;;;10.35;6.10;;;;;;;3.69;66.37;101430.63;2034365;86;27842;-69
2021/03/28 01:40:32;;;;;;;13.93;6.50;;;;;;;3.68;66.37;101434.63;2026364;86;27944;-71
2021/03/28 01:43:55;;;;;;;8.15;5.70;;;;;;;3.64;66.31;101430.65;2034977;86;28850;-69
2021/03/28 01:47:25;;;;;;;11.90;6.17;;;;;;;3.68;66.45;101433.30;2267159;77;28165;-73
2021/03/28 01:51:04;;;;;;;10.53;5.22;;;;;;;3.62;66.62;101440.83;2248766;78;27299;-70
2021/03/28 01:54:21;;;;;;;11.25;6.03;;;;;;;3.61;66.54;101440.37;2224782;78;28828;-74
2021/03/28 01:58:07;;;;;;;12.23;6.20;;;;;;;3.60;66.62;101449.22;2237778;78;31193;-68
2021/03/28 02:01:29;;;;;;;11.20;4.80;;;;;;;3.61;66.74;101443.03;2245203;78;37313;-69
2021/03/28 02:05:11;;;;;;;9.58;5.33;;;;;;;3.62;66.83;101439.04;2251071;78;28608;-71
2021/03/28 02:08:30;;;;;;;9.55;5.55;;;;;;;3.69;66.91;101437.71;2241005;78;27636;-70
2021/03/28 02:12:00;;;;;;;10.35;6.50;;;;;;;3.78;66.97;101442.97;2256409;78;29792;-70
2021/03/28 02:15:40;;;;;;;9.03;5.37;;;;;;;3.85;66.84;101442.08;2158323;81;31113;-68
2021/03/28 02:19:19;;;;;;;8.35;4.75;;;;;;;3.90;66.76;101446.90;2206069;80;34464;-70
2021/03/28 02:22:32;;;;;;;8.98;5.50;;;;;;;3.88;66.61;101447.37;2194193;80;28861;-69
2021/03/28 02:26:15;;;;;;;7.22;5.40;;;;;;;3.86;66.57;101450.47;2085139;84;27835;-67
2021/03/28 02:29:45;;;;;;;9.10;5.33;;;;;;;3.85;66.59;101447.38;2278798;77;27708;-71
2021/03/28 02:33:50;;;;;;;11.67;6.03;;;;;;;3.80;66.59;101450.48;2229190;77;27734;-71
2021/03/28 02:37:17;;;;;;;9.90;6.03;;;;;;;3.68;66.60;101459.34;2192521;80;27627;-69
2021/03/28 02:40:41;;;;;;;10.93;5.83;;;;;;;3.58;66.75;101454.50;2190476;78;28852;-73
2021/03/28 02:44:07;;;;;;;9.55;5.45;;;;;;;3.53;66.75;101460.70;2196904;80;31110;-73
2021/03/28 02:47:20;;;;;;;9.28;4.50;;;;;;;3.43;66.84;101459.83;2192468;80;33942;-75
2021/03/28 02:50:52;;;;;;;15.50;7.03;;;;;;;3.33;66.89;101470.44;2192283;80;29454;-71
2021/03/28 02:54:39;;;;;;;12.47;6.53;;;;;;;3.25;66.90;101464.25;2194986;79;27849;-76
2021/03/28 02:57:56;;;;;;;12.05;6.35;;;;;;;3.15;67.04;101468.66;2196144;80;30128;-78
2021/03/28 03:01:38;;;;;;;9.65;6.58;;;;;;;3.06;67.18;101469.13;2202791;80;31119;-77
2021/03/28 03:05:20;;;;;;;9.53;5.27;;;;;;;3.02;67.31;101474.84;2272270;77;27429;-73
2021/03/28 03:08:44;;;;;;;12.97;5.60;;;;;;;2.97;67.43;101480.14;2230526;77;27752;-76
2021/03/28 03:11:55;;;;;;;7.05;4.58;;;;;;;2.90;67.55;101487.62;2190579;78;27771;-75
2021/03/28 03:15:24;;;;;;;8.98;4.78;;;;;;;2.87;67.79;101484.99;2195580;80;30022;-74
2021/03/28 03:19:17;;;;;;;9.63;5.80;;;;;;;2.84;67.74;101486.30;2203520;80;32459;-73
2021/03/28 03:22:53;;;;;;;13.45;6.08;;;;;;;2.81;67.75;101495.55;2199132;80;34033;-76
2021/03/28 03:26:19;;;;;;;14.20;6.65;;;;;;;2.78;67.84;101496.45;2197272;80;29390;-75
2021/03/28 03:29:56;;;;;;;10.85;5.87;;;;;;;2.75;67.84;101497.76;2079120;83;28285;-75
2021/03/28 03:33:21;;;;;;;13.98;6.37;;;;;;;2.69;67.92;101495.08;2079670;85;28829;-76
2021/03/28 03:37:11;;;;;;;14.15;6.60;;;;;;;2.63;67.95;101502.57;2084576;83;31154;-77
2021/03/28 03:40:30;;;;;;;12.13;6.85;;;;;;;2.56;67.95;101500.34;2073400;85;34372;-72
2021/03/28 03:43:53;;;;;;;9.45;6.37;;;;;;;2.51;68.11;101505.19;2077274;85;30158;-71
2021/03/28 03:47:31;;;;;;;12.33;7.22;;;;;;;2.45;68.19;101513.99;2077086;83;28259;-73
2021/03/28 03:51:10;;;;;;;16.77;7.37;;;;;;;2.43;68.37;101512.64;2247601;77;27642;-72
2021/03/28 03:54:50;;;;;;;10.08;6.40;;;;;;;2.36;68.48;101514.84;2223906;79;27614;-74
2021/03/28 03:57:56;;;;;;;16.75;6.37;;;;;;;2.36;68.44;101514.84;2229480;78;29733;-75
2021/03/28 04:01:21;;;;;;;13.35;7.30;;;;;;;2.36;68.59;101518.80;2186990;79;31131;-75
2021/03/28 04:04:31;;;;;;;16.10;7.20;;;;;;;2.37;68.65;101523.64;2207036;78;33142;-74
2021/03/28 04:08:24;;;;;;;12.03;6.85;;;;;;;2.37;68.80;101535.54;2225926;78;28798;-73
2021/03/28 04:11:53;;;;;;;10.50;7.72;;;;;;;2.34;68.79;101534.20;2225366;78;27657;-73
2021/03/28 04:15:06;;;;;;;12.37;7.28;;;;;;;2.31;68.84;101541.69;2222908;79;28837;-73
2021/03/28 04:18:26;;;;;;;11.63;8.08;;;;;;;2.30;68.81;101549.17;2215851;79;31235;-72
2021/03/28 04:21:42;;;;;;;17.92;8.33;;;;;;;2.27;68.83;101546.51;2207805;78;33575;-71
2021/03/28 04:25:01;;;;;;;15.20;9.40;;;;;;;2.22;68.88;101550.46;2221279;78;30175;-71
2021/03/28 04:28:23;;;;;;;18.85;8.65;;;;;;;2.16;68.90;101560.98;2224075;78;27678;-72
2021/03/28 04:32:06;;;;;;;13.25;7.87;;;;;;;2.12;69.07;101556.13;2220431;79;28904;-70
2021/03/28 04:35:35;;;;;;;12.75;7.25;;;;;;;2.11;69.08;101554.36;2225302;78;32057;-72
2021/03/28 04:38:57;;;;;;;17.82;8.03;;;;;;;2.12;69.22;101552.63;2220193;78;33099;-71
2021/03/28 04:42:23;;;;;;;13.60;7.53;;;;;;;2.13;69.37;101557.91;2222705;78;28860;-75
2021/03/28 04:45:50;;;;;;;16.80;8.83;;;;;;;2.15;69.46;101559.67;2180504;81;27897;-74
2021/03/28 04:49:25;;;;;;;19.07;7.83;;;;;;;2.13;69.44;101568.48;2151199;81;29808;-75
2021/03/28 04:53:17;;;;;;;15.15;8.25;;;;;;;2.10;69.49;101568.45;2161049;81;31150;-73
2021/03/28 04:56:34;;;;;;;14.38;7.67;;;;;;;2.11;69.53;101571.55;2152630;81;34438;-78
2021/03/28 05:00:15;;;;;;;14.05;8.08;;;;;;;2.10;69.56;101569.77;2150271;81;28819;-76
2021/03/28 05:03:30;;;;;;;12.15;8.03;;;;;;;2.12;69.64;101577.73;2151450;81;27716;-76
2021/03/28 05:07:14;;;;;;;14.83;7.72;;;;;;;2.11;69.75;101582.12;2148754;81;28832;-73
2021/03/28 05:10:56;;;;;;;12.85;6.87;;;;;;;2.12;69.74;101582.56;2153755;81;31222;-76
2021/03/28 05:18:00;;;;;;;13.27;6.77;;;;;;;2.36;69.92;101583.59;2312888;74;27684;-75
2021/03/28 05:21:37;;;;;;;11.85;6.37;;;;;;;2.42;69.91;101586.70;2280668;75;27679;-76
2021/03/28 05:25:16;;;;;;;9.40;6.30;;;;;;;2.53;69.95;101592.92;2282088;77;28816;-73
2021/03/28 05:29:04;;;;;;;17.32;7.12;;;;;;;2.64;69.95;101604.01;2252779;78;31146;-74
2021/03/28 05:32:30;;;;;;;12.18;7.12;;;;;;;2.75;69.88;101610.22;2180252;80;34632;-73
2021/03/28 05:35:52;;;;;;;11.40;6.42;;;;;;;2.86;69.86;101613.77;2211788;80;28748;-73
2021/03/28 05:39:18;;;;;;;11.22;6.40;;;;;;;2.96;69.83;101612.05;2212878;78;27685;-71
2021/03/28 05:42:43;;;;;;;12.37;6.72;;;;;;;3.07;69.85;101613.83;2211469;80;30133;-72
2021/03/28 05:46:35;;;;;;;14.15;5.62;;;;;;;3.18;69.66;101628.88;2211460;78;31143;-72
2021/03/28 05:49:51;;;;;;;10.88;6.40;;;;;;;3.28;69.51;101631.56;2221019;78;33087;-83
2021/03/28 05:53:30;;;;;;;9.23;5.87;;;;;;;3.43;69.42;101628.03;2209939;80;28854;-70
2021/03/28 05:57:23;;;;;;;11.08;5.17;;;;;;;3.55;69.38;101628.50;2202880;80;28142;-70
2021/03/28 06:01:21;;;;;;;11.30;5.50;;;;;;;3.68;69.29;101630.27;2171486;80;29071;-70
2021/03/28 06:04:34;;;;;;;11.38;4.80;;;;;;;3.90;69.21;101629.83;2155011;80;32055;-73
2021/03/28 06:08:14;;;;;;;13.25;6.42;;;;;;;4.15;68.97;101635.55;2192899;78;33099;-74
2021/03/28 06:12:10;;;;;;;14.65;6.65;;;;;;;4.34;68.83;101640.40;2238585;77;29892;-71
2021/03/28 06:15:54;;;;;;;26.60;8.00;;;;;;;4.61;68.81;101647.84;2293795;76;27661;-71
2021/03/28 06:19:20;;;;;;;17.90;6.62;;;;;;;5.04;68.41;101651.67;2284597;77;29342;-72
2021/03/28 06:23:07;;;;;;;18.25;7.45;;;;;;;5.65;67.93;101644.64;2276394;77;31118;-71
2021/03/28 06:26:42;;;;;;;23.27;9.85;;;;;;;6.27;67.13;101654.34;2274601;77;33118;-67
2021/03/28 06:30:29;;;;;;;34.50;13.73;;;;;;;6.99;66.09;101651.76;2318951;76;27682;-68
2021/03/28 06:33:59;;;;;;;68.30;25.85;;;;;;;7.23;65.65;101660.34;2201204;78;27791;-66
2021/03/28 06:37:41;;;;;;;45.03;18.92;;;;;;;7.42;64.96;101656.52;2230610;76;28793;-67
2021/03/28 06:41:16;;;;;;;27.93;11.68;;;;;;;7.67;65.02;101661.93;2215668;76;32423;-67
2021/03/28 06:45:11;;;;;;;13.83;7.40;;;;;;;8.22;63.98;101657.45;2315978;76;31958;-68
2021/03/28 06:49:00;;;;;;;12.40;5.08;;;;;;;8.48;63.71;101662.79;2258494;75;27653;-78
2021/03/28 06:52:22;;;;;;;13.43;4.45;;;;;;;8.89;62.66;101661.11;2279297;75;29272;-80
2021/03/28 06:55:46;;;;;;;10.85;4.12;;;;;;;9.25;62.14;101661.23;2274405;75;31130;-72
2021/03/28 06:59:35;;;;;;;11.30;4.92;;;;;;;9.60;62.01;101661.80;2283529;75;34102;-76
2021/03/28 07:03:16;;;;;;;7.05;3.83;;;;;;;9.94;61.23;101662.30;2270346;77;28597;-78
2021/03/28 07:06:46;;;;;;;10.30;5.45;;;;;;;10.32;60.93;101661.77;2292886;77;27752;-72
2021/03/28 07:10:24;;;;;;;16.48;6.03;;;;;;;10.73;60.41;101660.25;2287366;77;29762;-77
2021/03/28 07:13:49;;;;;;;15.78;6.05;;;;;;;10.82;58.93;101659.11;2270615;77;31128;-67
2021/03/28 07:17:05;;;;;;;13.68;4.85;;;;;;;11.01;59.18;101661.67;2276332;75;34034;-76
2021/03/28 07:20:38;;;;;;;15.63;6.00;;;;;;;11.32;57.81;101659.41;2266408;75;28870;-74
2021/03/28 07:24:44;;;;;;;9.13;3.98;;;;;;;11.42;57.35;101661.83;2292056;75;27765;-76
2021/03/28 07:28:29;;;;;;;14.50;5.95;;;;;;;11.61;57.68;101655.39;2276074;77;27615;-79
2021/03/28 07:32:01;;;;;;;12.70;4.70;;;;;;;11.98;57.62;101656.44;2261558;78;32033;-70
2021/03/28 07:35:31;;;;;;;10.25;5.03;;;;;;;12.24;56.06;101660.05;2255270;77;33556;-80
2021/03/28 07:39:17;;;;;;;14.50;4.55;;;;;;;12.51;55.54;101660.45;2233365;79;29214;-74
2021/03/28 07:42:55;;;;;;;6.15;2.95;;;;;;;12.57;54.22;101657.10;2233492;77;28214;-71
2021/03/28 07:46:29;;;;;;;15.50;5.17;;;;;;;12.58;54.25;101658.83;2265050;78;29193;-72
2021/03/28 07:49:56;;;;;;;13.25;4.80;;;;;;;12.78;54.37;101656.36;2265122;78;32480;-71
2021/03/28 07:53:28;;;;;;;15.00;5.35;;;;;;;13.14;53.88;101653.22;2264867;78;33627;-73
2021/03/28 07:56:59;;;;;;;14.10;5.10;;;;;;;13.55;53.08;101652.55;2264169;78;29729;-70
2021/03/28 08:00:32;;;;;;;20.02;9.90;;;;;;;13.32;52.33;101651.61;2264394;78;27561;-72
2021/03/28 08:04:06;;;;;;;14.90;5.22;;;;;;;13.33;53.01;101656.92;2263893;78;28880;-74
2021/03/28 08:07:25;;;;;;;17.40;5.25;;;;;;;13.55;52.26;101652.06;2270988;77;31197;-72
2021/03/28 08:10:54;;;;;;;13.70;6.65;;;;;;;13.61;52.07;101652.28;2284161;77;33137;-70
2021/03/28 08:14:15;;;;;;;15.35;4.12;;;;;;;13.59;52.09;101653.70;2088154;84;28867;-71
2021/03/28 08:17:50;;;;;;;21.97;9.60;;;;;;;13.52;51.66;101658.47;2088185;85;28009;-71
2021/03/28 08:21:16;;;;;;;22.07;8.60;;;;;;;13.45;50.81;101668.20;2087942;85;29901;-70
2021/03/28 08:25:18;;;;;;;7.37;3.67;;;;;;;13.41;50.69;101668.77;2227478;77;32260;-73
2021/03/28 08:28:41;;;;;;;13.20;5.67;;;;;;;13.49;51.12;101665.77;2130325;83;27648;-72
2021/03/28 08:32:19;;;;;;;11.57;4.95;;;;;;;13.76;50.63;101667.81;2137119;83;29694;-74
2021/03/28 08:36:03;;;;;;;9.93;3.67;;;;;;;13.87;49.48;101662.47;2101111;84;27686;-70
2021/03/28 08:39:38;;;;;;;14.73;6.83;;;;;;;14.03;50.40;101654.61;2103168;84;34545;-66
2021/03/28 08:43:08;;;;;;;14.20;6.05;;;;;;;14.13;49.29;101655.50;2103175;84;29516;-69
2021/03/28 08:46:36;;;;;;;12.63;4.35;;;;;;;14.08;48.70;101658.85;2106696;83;27760;-73
2021/03/28 08:50:12;;;;;;;12.35;4.37;;;;;;;14.02;48.49;101662.28;2112758;83;29702;-69
2021/03/28 08:53:56;;;;;;;10.50;4.00;;;;;;;14.09;48.30;101652.52;2105379;83;31150;-70
2021/03/28 08:57:32;;;;;;;12.28;4.17;;;;;;;13.95;48.07;101654.48;2110439;83;33878;-70
2021/03/28 09:01:00;;;;;;;10.80;3.52;;;;;;;13.97;48.14;101647.66;2139056;82;30071;-68
2021/03/28 09:04:25;;;;;;;13.55;5.37;;;;;;;14.09;47.45;101644.44;2078110;84;27716;-69
2021/03/28 09:08:05;;;;;;;11.40;4.33;;;;;;;14.07;45.15;101641.41;2341731;76;32188;-72
2021/03/28 09:11:32;;;;;;;9.45;3.37;;;;;;;13.94;47.00;101635.66;2306548;77;27644;-71
2021/03/28 09:15:06;;;;;;;5.92;3.15;;;;;;;14.03;46.68;101632.59;2306257;77;29862;-66
2021/03/28 09:18:50;;;;;;;7.40;3.45;;;;;;;14.09;47.08;101641.74;2264911;77;31582;-69
2021/03/28 09:22:14;;;;;;;9.90;3.00;;;;;;;14.07;45.50;101643.63;2178048;81;32952;-69
2021/03/28 09:25:27;;;;;;;11.12;4.90;;;;;;;14.00;45.83;101642.15;2148990;81;29460;-70
2021/03/28 09:28:54;;;;;;;9.13;3.12;;;;;;;13.95;45.31;101642.80;2161367;81;27827;-71
2021/03/28 09:32:24;;;;;;;10.60;3.70;;;;;;;13.93;45.75;101648.27;2143590;81;29015;-70
2021/03/28 09:36:05;;;;;;;18.42;6.28;;;;;;;13.90;45.33;101642.14;2146540;81;31543;-79
2021/03/28 09:40:01;;;;;;;11.22;4.78;;;;;;;13.97;44.69;101646.31;2243141;78;32364;-73
2021/03/28 09:43:29;;;;;;;12.93;5.03;;;;;;;13.93;44.37;101638.84;2192012;79;32049;-72
2021/03/28 09:47:07;;;;;;;15.13;3.02;;;;;;;13.78;44.33;101636.80;2067555;86;27535;-71
2021/03/28 09:50:31;;;;;;;24.25;7.05;;;;;;;13.79;44.62;101635.86;1998869;89;31848;-72
2021/03/28 09:54:15;;;;;;;14.53;4.65;;;;;;;13.81;43.56;101632.15;2033512;87;33184;-71
2021/03/28 09:58:02;;;;;;;17.32;6.70;;;;;;;13.79;43.95;101640.76;2032646;87;28984;-73
2021/03/28 10:01:42;;;;;;;18.12;6.40;;;;;;;13.85;43.71;101641.45;2061268;86;27841;-73
2021/03/28 10:05:05;;;;;;;15.75;4.53;;;;;;;13.98;43.71;101638.64;2296924;77;32256;-73
2021/03/28 10:08:20;;;;;;;15.00;4.45;;;;;;;13.96;43.64;101655.34;2239694;78;27886;-71
2021/03/28 10:11:33;;;;;;;11.55;3.65;;;;;;;13.89;43.31;101651.17;2222009;80;28819;-71
2021/03/28 10:15:08;;;;;;;10.40;3.65;;;;;;;13.90;43.16;101650.23;2178775;81;31205;-71
2021/03/28 10:18:39;;;;;;;6.90;3.40;;;;;;;13.96;43.20;101655.34;2100360;84;33186;-71
2021/03/28 10:22:25;;;;;;;8.65;4.05;;;;;;;13.89;42.09;101657.91;2101007;84;28557;-72
2021/03/28 10:25:39;;;;;;;14.90;5.87;;;;;;;13.77;41.83;101656.59;2100962;83;27767;-71
2021/03/28 10:29:10;;;;;;;10.05;3.77;;;;;;;13.72;42.36;101665.31;2078062;84;28814;-72
2021/03/28 10:32:33;;;;;;;9.55;4.05;;;;;;;13.76;43.08;101666.95;2062278;84;31268;-71
2021/03/28 10:35:57;;;;;;;15.13;5.75;;;;;;;13.78;42.15;101663.73;2251118;77;32908;-71
2021/03/28 10:39:28;;;;;;;15.03;4.10;;;;;;;13.75;42.77;101663.36;2192207;80;27624;-71
2021/03/28 10:42:50;;;;;;;9.20;4.45;;;;;;;13.86;42.98;101660.72;2165045;82;28799;-69
2021/03/28 10:46:34;;;;;;;11.35;4.40;;;;;;;13.92;42.60;101657.75;2175117;80;32036;-73
2021/03/28 10:50:08;;;;;;;14.85;4.20;;;;;;;13.92;42.39;101656.40;2178955;81;33127;-70
2021/03/28 10:53:28;;;;;;;6.85;3.72;;;;;;;13.78;41.71;101651.13;2177512;81;29515;-78
2021/03/28 10:56:58;;;;;;;9.80;4.20;;;;;;;13.80;42.31;101649.73;2178356;81;27886;-71
2021/03/28 11:00:52;;;;;;;12.80;3.55;;;;;;;13.89;42.51;101639.91;2178802;81;28990;-73
2021/03/28 11:04:44;;;;;;;12.05;4.08;;;;;;;14.04;42.62;101642.89;2179156;81;31276;-73
2021/03/28 11:08:12;;;;;;;11.68;3.87;;;;;;;14.25;42.03;101643.77;2178862;81;34050;-74
2021/03/28 11:11:48;;;;;;;12.10;3.50;;;;;;;14.33;41.11;101648.83;2178636;81;28794;-77
2021/03/28 11:15:28;;;;;;;11.20;4.78;;;;;;;14.37;40.87;101648.66;2130612;82;27572;-66
2021/03/28 11:19:01;;;;;;;14.10;6.55;;;;;;;14.35;40.96;101643.80;2155528;82;28990;-78
2021/03/28 11:22:15;;;;;;;11.85;4.37;;;;;;;14.41;41.13;101642.64;2155792;82;31104;-71
2021/03/28 11:25:32;;;;;;;33.50;13.65;;;;;;;14.57;40.38;101641.47;2342756;76;32325;-70
2021/03/28 11:29:11;;;;;;;52.78;20.92;;;;;;;14.50;40.26;101640.02;2306328;77;27596;-70
2021/03/28 11:32:36;;;;;;;29.20;12.40;;;;;;;14.54;40.25;101639.80;2226850;79;28745;-71
2021/03/28 11:36:04;;;;;;;12.15;4.72;;;;;;;14.61;40.64;101628.75;2342651;75;32301;-71
2021/03/28 11:39:17;;;;;;;12.65;4.53;;;;;;;14.68;40.68;101631.59;2302566;77;27694;-70
2021/03/28 11:42:26;;;;;;;9.13;4.30;;;;;;;14.78;40.67;101634.73;2303566;77;28707;-70
2021/03/28 11:45:53;;;;;;;10.25;4.33;;;;;;;14.88;40.49;101623.45;2280428;77;32041;-72
2021/03/28 11:49:01;;;;;;;14.23;4.50;;;;;;;15.00;40.21;101616.62;2251008;78;34009;-71
2021/03/28 11:52:18;;;;;;;10.95;4.42;;;;;;;15.04;40.23;101624.08;2261922;78;29568;-70
2021/03/28 11:55:50;;;;;;;11.63;4.35;;;;;;;15.04;40.09;101623.63;2261945;78;27636;-70
2021/03/28 11:59:00;;;;;;;8.43;4.10;;;;;;;15.05;40.03;101617.74;2244301;77;28853;-71
2021/03/28 12:02:13;;;;;;;9.50;4.30;;;;;;;15.02;39.39;101614.73;2233845;79;32068;-79
2021/03/28 12:05:59;;;;;;;14.45;7.83;;;;;;;14.94;39.78;101610.63;2233499;79;34053;-73
2021/03/28 12:09:03;;;;;;;17.37;7.35;;;;;;;14.84;39.30;101607.00;2233754;79;29765;-77
2021/03/28 12:12:23;;;;;;;17.80;14.10;;;;;;;14.83;39.49;101612.48;2233961;79;27669;-72
2021/03/28 12:15:47;;;;;;;26.45;14.13;;;;;;;14.88;39.83;101602.36;2267985;75;29972;-75
2021/03/28 12:18:53;;;;;;;50.60;17.98;;;;;;;14.93;39.69;101603.48;2303363;77;31070;-72
2021/03/28 12:22:00;;;;;;;32.78;18.07;;;;;;;15.02;39.74;101604.39;2303821;77;33950;-73
2021/03/28 12:25:17;;;;;;;31.62;14.30;;;;;;;15.12;39.50;101608.88;2292751;77;28841;-73
2021/03/28 12:28:49;;;;;;;11.03;4.87;;;;;;;15.08;38.47;101603.21;2302961;77;27854;-68
2021/03/28 12:31:53;;;;;;;21.30;7.65;;;;;;;14.94;38.29;101595.31;2302924;77;28867;-69
2021/03/28 12:35:19;;;;;;;18.95;7.33;;;;;;;14.78;37.90;101596.97;2303031;77;31119;-68
2021/03/28 12:38:33;;;;;;;12.60;4.95;;;;;;;14.69;37.65;101595.13;2302905;77;33472;-66
2021/03/28 12:41:36;;;;;;;23.52;8.18;;;;;;;14.63;37.97;101591.31;2303350;77;28850;-70
2021/03/28 12:44:40;;;;;;;11.43;4.15;;;;;;;14.55;37.94;101587.62;2241145;78;27697;-70
2021/03/28 12:47:51;;;;;;;9.63;3.60;;;;;;;14.56;36.95;101595.25;2260562;78;28876;-71
2021/03/28 12:50:53;;;;;;;10.60;4.45;;;;;;;14.54;37.17;101591.26;2260642;78;31125;-68
2021/03/28 12:53:55;;;;;;;7.95;3.98;;;;;;;14.51;36.90;101585.14;2261201;77;33108;-69
2021/03/28 12:57:02;;;;;;;7.85;3.50;;;;;;;14.54;36.80;101583.17;2302442;77;29726;-67
2021/03/28 13:00:16;;;;;;;14.20;5.40;;;;;;;14.52;36.82;101581.50;2266528;77;27872;-67
2021/03/28 13:03:36;;;;;;;7.08;3.30;;;;;;;14.51;37.36;101586.48;2302482;77;28808;-64
2021/03/28 13:06:50;;;;;;;10.08;3.20;;;;;;;14.41;36.63;101586.03;2302038;77;30292;-68
2021/03/28 13:09:52;;;;;;;9.88;3.60;;;;;;;14.26;36.49;101583.08;2302738;77;34069;-70
2021/03/28 13:13:19;;;;;;;10.93;3.92;;;;;;;14.13;36.11;101575.14;2302869;77;29249;-66
2021/03/28 13:16:28;;;;;;;16.20;6.47;;;;;;;14.05;36.97;101571.89;2302577;77;27589;-70
2021/03/28 13:19:34;;;;;;;18.23;6.78;;;;;;;14.04;36.92;101569.68;2302926;77;29878;-69
2021/03/28 13:22:50;;;;;;;36.48;18.85;;;;;;;14.09;36.67;101560.90;2301723;77;32038;-77
2021/03/28 13:26:29;;;;;;;26.05;12.78;;;;;;;14.09;36.88;101560.90;2144260;81;33187;-72
2021/03/28 13:29:56;;;;;;;15.32;7.12;;;;;;;14.19;37.14;101560.52;2285373;76;32263;-71
2021/03/28 13:33:12;;;;;;;13.88;7.62;;;;;;;14.15;37.16;101558.89;2250209;77;27647;-70
2021/03/28 13:36:39;;;;;;;9.30;3.98;;;;;;;14.12;36.54;101555.37;2240609;77;28205;-70
2021/03/28 13:40:03;;;;;;;8.15;3.42;;;;;;;14.10;36.83;101563.14;2245371;79;27631;-69
2021/03/28 13:43:18;;;;;;;;;;;;;;;14.13;37.25;101562.52;2252706;78;33095;-70
2021/03/28 13:46:22;;;;;;;9.53;3.72;;;;;;;14.17;36.60;101559.70;2249967;79;29413;-70
2021/03/28 13:49:46;;;;;;;9.73;3.83;;;;;;;14.17;36.73;101547.08;2253608;79;27731;-66
2021/03/28 13:52:59;;;;;;;10.03;3.92;;;;;;;14.22;37.15;101553.64;2244915;79;28862;-69
2021/03/28 13:56:35;;;;;;;7.33;3.22;;;;;;;14.26;37.34;101549.38;2210002;80;31133;-66
2021/03/28 13:59:58;;;;;;;8.45;3.22;;;;;;;14.27;37.30;101547.55;2202263;80;33555;-68
2021/03/28 14:03:19;;;;;;;10.68;3.58;;;;;;;14.28;37.14;101546.61;2223183;79;31145;-67
2021/03/28 14:06:37;;;;;;;8.75;3.33;;;;;;;14.34;36.95;101531.97;2342684;76;32175;-69
2021/03/28 14:09:44;;;;;;;7.92;3.45;;;;;;;14.23;37.36;101538.73;2306993;77;27715;-65
2021/03/28 14:13:08;;;;;;;9.90;3.87;;;;;;;14.21;37.33;101546.01;2305082;77;28815;-67
2021/03/28 14:16:14;;;;;;;11.00;4.05;;;;;;;14.21;37.33;101543.80;2290761;77;32101;-68
2021/03/28 14:19:32;;;;;;;6.42;3.65;;;;;;;14.21;37.57;101547.36;2264313;78;33201;-65
2021/03/28 14:23:13;;;;;;;8.75;2.85;;;;;;;14.28;37.32;101542.56;2257248;77;29439;-66
2021/03/28 14:26:25;;;;;;;8.83;3.22;;;;;;;14.29;36.39;101547.01;2282154;75;27579;-65
2021/03/28 14:30:01;;;;;;;8.43;3.62;;;;;;;14.22;36.57;101547.77;2277499;77;27704;-68
2021/03/28 14:33:09;;;;;;;9.60;3.70;;;;;;;14.24;36.70;101549.92;2256604;78;31134;-65
2021/03/28 14:36:22;;;;;;;9.95;4.35;;;;;;;14.23;36.31;101549.52;2251395;78;33123;-68
2021/03/28 14:40:20;;;;;;;11.93;5.90;;;;;;;14.20;36.03;101548.79;2225921;79;27649;-67
2021/03/28 14:43:57;;;;;;;6.47;3.45;;;;;;;14.09;36.46;101546.08;2185494;81;27625;-65
2021/03/28 14:47:11;;;;;;;9.73;3.37;;;;;;;14.00;36.13;101543.80;2184692;81;28893;-68
2021/03/28 14:50:54;;;;;;;9.58;3.55;;;;;;;13.93;36.45;101538.27;2185434;78;31090;-67
2021/03/28 14:54:05;;;;;;;9.00;3.87;;;;;;;13.89;36.45;101533.98;2143968;82;33130;-68
2021/03/28 14:57:16;;;;;;;10.98;3.80;;;;;;;13.85;36.14;101534.56;2124175;83;30279;-67
2021/03/28 15:00:32;;;;;;;6.80;2.92;;;;;;;13.76;36.54;101537.67;2121539;83;27771;-67
2021/03/28 15:04:02;;;;;;;7.58;3.25;;;;;;;13.68;36.11;101537.52;2343104;76;32277;-69
2021/03/28 15:07:41;;;;;;;9.00;3.08;;;;;;;13.55;36.17;101536.30;2278192;78;27727;-71
2021/03/28 15:10:51;;;;;;;10.48;4.55;;;;;;;13.45;36.55;101538.49;2278030;78;28793;-68
2021/03/28 15:14:20;;;;;;;7.85;4.40;;;;;;;13.37;36.74;101536.09;2173740;81;31122;-67
2021/03/28 15:17:43;;;;;;;34.92;17.32;;;;;;;13.31;37.11;101529.63;2277430;78;33115;-70
2021/03/28 15:20:57;;;;;;;10.28;4.67;;;;;;;13.27;37.14;101523.97;2243922;78;28524;-67
2021/03/28 15:24:10;;;;;;;8.53;3.50;;;;;;;13.14;36.40;101526.27;2240429;78;27665;-67
2021/03/28 15:27:43;;;;;;;9.80;3.62;;;;;;;12.94;36.32;101523.05;2246842;79;28899;-68
2021/03/28 15:31:03;;;;;;;15.50;5.80;;;;;;;12.81;36.58;101525.83;2246723;78;31057;-68
2021/03/28 15:34:29;;;;;;;15.45;6.67;;;;;;;12.69;36.56;101525.34;2234352;79;34032;-67
2021/03/28 15:37:48;;;;;;;10.60;4.17;;;;;;;12.60;36.66;101528.41;2251366;78;29274;-67
2021/03/28 15:41:34;;;;;;;9.05;3.90;;;;;;;12.51;36.99;101526.05;2235139;79;27603;-67
2021/03/28 15:45:17;;;;;;;9.78;4.00;;;;;;;12.46;37.30;101526.23;2174830;81;29026;-68
2021/03/28 15:48:43;;;;;;;8.63;3.87;;;;;;;12.39;37.60;101521.55;2179141;81;31150;-67
2021/03/28 15:52:03;;;;;;;7.80;3.47;;;;;;;12.29;37.48;101522.36;2179034;81;34013;-67
2021/03/28 15:55:37;;;;;;;8.63;2.92;;;;;;;12.14;37.49;101513.08;2175831;81;29236;-66
2021/03/28 15:59:03;;;;;;;7.28;3.02;;;;;;;12.00;37.46;101512.23;2178953;81;27768;-68
2021/03/28 16:02:25;;;;;;;;;;;;;;;11.91;37.62;101516.56;2176324;81;29709;-68
2021/03/28 16:06:15;;;;;;;9.00;3.90;;;;;;;11.81;37.91;101516.02;2163334;82;31160;-67